SAS233 EFHK-EDDH
Flight info
| Callsign | SAS233 |
|---|---|
| Flight time | N/A |
| Altitude | 38000 |
| Route | NUNTO Y369 REKDO DCT KOSKA DCT GIMRU T503 MICOS N850 BOGMU BOGMU3P |
| Aircraft | A320/M-SDE3FGHIRWY/LB1 |
Departure
| Time | 2026-04-23 18:11 |
|---|---|
| Airport | Helsinki Vantaa Airport (EFHK) |
Arrival
| Time | N/A |
|---|---|
| Airport | Hamburg Helmut Schmidt Airport (EDDH) |
| Time | Latitude | Longitude | Altitude | Speed | Heading |
|---|---|---|---|---|---|
| 2026-04-23 17:55 | 60.31805 | 24.96384 | 167 ft | 0 kts | 137° |
| 2026-04-23 18:03 | 60.31813 | 24.96368 | 167 ft | 2 kts | 137° |
| 2026-04-23 18:03 | 60.31826 | 24.96346 | 166 ft | 2 kts | 132° |
| 2026-04-23 18:04 | 60.31836 | 24.96322 | 166 ft | 2 kts | 140° |
| 2026-04-23 18:04 | 60.31849 | 24.96303 | 166 ft | 2 kts | 186° |
| 2026-04-23 18:04 | 60.31862 | 24.96313 | 166 ft | 0 kts | 247° |
| 2026-04-23 18:05 | 60.31859 | 24.96291 | 166 ft | 5 kts | 251° |
| 2026-04-23 18:06 | 60.31859 | 24.96165 | 164 ft | 13 kts | 293° |
| 2026-04-23 18:06 | 60.31922 | 24.95990 | 162 ft | 18 kts | 269° |
| 2026-04-23 18:06 | 60.31844 | 24.95776 | 161 ft | 21 kts | 227° |
| 2026-04-23 18:06 | 60.31739 | 24.95539 | 159 ft | 24 kts | 228° |
| 2026-04-23 18:07 | 60.31618 | 24.95274 | 158 ft | 27 kts | 227° |
| 2026-04-23 18:07 | 60.31488 | 24.94983 | 156 ft | 26 kts | 227° |
| 2026-04-23 18:07 | 60.31359 | 24.94701 | 154 ft | 29 kts | 227° |
| 2026-04-23 18:07 | 60.31220 | 24.94398 | 152 ft | 31 kts | 228° |
| 2026-04-23 18:08 | 60.31122 | 24.94183 | 151 ft | 32 kts | 227° |
| 2026-04-23 18:08 | 60.31063 | 24.93802 | 149 ft | 17 kts | 303° |
| 2026-04-23 18:08 | 60.31150 | 24.93683 | 146 ft | 7 kts | 26° |
| 2026-04-23 18:08 | 60.31184 | 24.93754 | 148 ft | 7 kts | 47° |
| 2026-04-23 18:09 | 60.31193 | 24.93773 | 148 ft | 0 kts | 47° |
| 2026-04-23 18:10 | 60.31228 | 24.93851 | 149 ft | 33 kts | 47° |
| 2026-04-23 18:11 | 60.31545 | 24.94542 | 153 ft | 99 kts | 47° |
| 2026-04-23 18:11 | 60.32123 | 24.95810 | 163 ft | 147 kts | 46° |
| 2026-04-23 18:11 | 60.32894 | 24.97381 | 527 ft | 158 kts | 44° |
| 2026-04-23 18:11 | 60.33647 | 24.99021 | 1167 ft | 159 kts | 44° |
| 2026-04-23 18:12 | 60.34409 | 25.00732 | 1679 ft | 174 kts | 44° |
| 2026-04-23 18:12 | 60.35277 | 25.02672 | 1996 ft | 198 kts | 44° |
| 2026-04-23 18:12 | 60.36254 | 25.04848 | 2410 ft | 221 kts | 44° |
| 2026-04-23 18:12 | 60.37343 | 25.07268 | 2898 ft | 243 kts | 44° |
| 2026-04-23 18:13 | 60.38494 | 25.09832 | 3733 ft | 249 kts | 44° |
| 2026-04-23 18:13 | 60.39804 | 25.12121 | 4674 ft | 249 kts | 24° |
| 2026-04-23 18:13 | 60.41475 | 25.12900 | 5556 ft | 250 kts | 0° |
| 2026-04-23 18:13 | 60.43202 | 25.12749 | 6437 ft | 255 kts | 348° |
| 2026-04-23 18:14 | 60.44815 | 25.11260 | 7305 ft | 259 kts | 323° |
| 2026-04-23 18:14 | 60.45938 | 25.08398 | 8260 ft | 266 kts | 298° |
| 2026-04-23 18:14 | 60.46282 | 25.04666 | 9138 ft | 280 kts | 271° |
| 2026-04-23 18:14 | 60.45666 | 25.00841 | 9976 ft | 297 kts | 246° |
| 2026-04-23 18:15 | 60.44518 | 24.97178 | 10322 ft | 320 kts | 243° |
| 2026-04-23 18:15 | 60.43243 | 24.93281 | 10511 ft | 344 kts | 242° |
| 2026-04-23 18:15 | 60.41863 | 24.89129 | 10653 ft | 367 kts | 242° |
| 2026-04-23 18:15 | 60.40393 | 24.84720 | 10780 ft | 388 kts | 241° |
| 2026-04-23 18:16 | 60.38857 | 24.80114 | 11092 ft | 401 kts | 241° |
| 2026-04-23 18:16 | 60.37287 | 24.75411 | 11669 ft | 406 kts | 242° |
| 2026-04-23 18:16 | 60.35725 | 24.70723 | 12254 ft | 410 kts | 242° |
| 2026-04-23 18:17 | 60.32509 | 24.61041 | 13489 ft | 420 kts | 243° |
| 2026-04-23 18:17 | 60.30879 | 24.56113 | 14048 ft | 424 kts | 244° |
| 2026-04-23 18:17 | 60.29395 | 24.50978 | 14591 ft | 424 kts | 248° |
| 2026-04-23 18:17 | 60.27975 | 24.45756 | 15142 ft | 427 kts | 249° |
| 2026-04-23 18:18 | 60.26577 | 24.40449 | 15647 ft | 430 kts | 250° |
| 2026-04-23 18:18 | 60.25179 | 24.35087 | 16152 ft | 434 kts | 250° |
| 2026-04-23 18:18 | 60.23787 | 24.29762 | 16651 ft | 438 kts | 250° |
| 2026-04-23 18:18 | 60.22348 | 24.24316 | 17142 ft | 442 kts | 250° |
| 2026-04-23 18:19 | 60.20884 | 24.18848 | 17646 ft | 446 kts | 250° |
| 2026-04-23 18:19 | 60.19394 | 24.13349 | 18139 ft | 450 kts | 249° |
| 2026-04-23 18:19 | 60.17885 | 24.07824 | 18553 ft | 453 kts | 249° |
| 2026-04-23 18:19 | 60.16365 | 24.02264 | 18973 ft | 456 kts | 250° |
| 2026-04-23 18:20 | 60.14829 | 23.96654 | 19361 ft | 459 kts | 250° |
| 2026-04-23 18:20 | 60.13292 | 23.91038 | 19773 ft | 462 kts | 250° |
| 2026-04-23 18:20 | 60.11743 | 23.85378 | 20165 ft | 464 kts | 250° |
| 2026-04-23 18:20 | 60.10183 | 23.79690 | 20548 ft | 467 kts | 250° |
| 2026-04-23 18:21 | 60.08629 | 23.74041 | 20894 ft | 470 kts | 250° |
| 2026-04-23 18:21 | 60.07043 | 23.68299 | 21217 ft | 472 kts | 250° |
| 2026-04-23 18:21 | 60.05449 | 23.62537 | 21545 ft | 475 kts | 250° |
| 2026-04-23 18:21 | 60.03843 | 23.56741 | 21872 ft | 477 kts | 250° |
| 2026-04-23 18:22 | 60.02233 | 23.50934 | 22175 ft | 479 kts | 250° |
| 2026-04-23 18:22 | 60.00606 | 23.45097 | 22482 ft | 482 kts | 250° |
| 2026-04-23 18:22 | 59.98965 | 23.39240 | 22780 ft | 484 kts | 250° |
| 2026-04-23 18:22 | 59.97319 | 23.33372 | 23088 ft | 486 kts | 250° |
| 2026-04-23 18:23 | 59.96221 | 23.29465 | 23287 ft | 488 kts | 250° |
| 2026-04-23 18:23 | 59.92348 | 23.15737 | 24070 ft | 488 kts | 250° |
| 2026-04-23 18:24 | 59.89015 | 23.03975 | 24781 ft | 487 kts | 250° |
| 2026-04-23 18:24 | 59.87346 | 22.98106 | 25083 ft | 487 kts | 250° |
| 2026-04-23 18:24 | 59.85669 | 22.92229 | 25452 ft | 487 kts | 250° |
| 2026-04-23 18:25 | 59.82315 | 22.80525 | 26249 ft | 486 kts | 250° |
| 2026-04-23 18:25 | 59.80664 | 22.74775 | 26661 ft | 486 kts | 250° |
| 2026-04-23 18:25 | 59.78987 | 22.68948 | 27078 ft | 485 kts | 250° |
| 2026-04-23 18:25 | 59.77311 | 22.63141 | 27487 ft | 485 kts | 250° |
| 2026-04-23 18:26 | 59.75630 | 22.57335 | 27923 ft | 485 kts | 250° |
| 2026-04-23 18:26 | 59.73947 | 22.51544 | 28362 ft | 484 kts | 250° |
| 2026-04-23 18:26 | 59.72260 | 22.45757 | 28805 ft | 484 kts | 250° |
| 2026-04-23 18:26 | 59.70576 | 22.39993 | 29251 ft | 483 kts | 250° |
| 2026-04-23 18:27 | 59.68897 | 22.34255 | 29704 ft | 483 kts | 250° |
| 2026-04-23 18:27 | 59.67207 | 22.28500 | 30136 ft | 482 kts | 250° |
| 2026-04-23 18:27 | 59.65547 | 22.22856 | 30530 ft | 481 kts | 250° |
| 2026-04-23 18:27 | 59.63864 | 22.17142 | 30952 ft | 480 kts | 250° |
| 2026-04-23 18:28 | 59.62181 | 22.11442 | 31371 ft | 479 kts | 250° |
| 2026-04-23 18:28 | 59.60502 | 22.05771 | 31809 ft | 478 kts | 250° |
| 2026-04-23 18:28 | 59.58821 | 22.00115 | 32179 ft | 477 kts | 249° |
| 2026-04-23 18:28 | 59.57148 | 21.94503 | 32650 ft | 474 kts | 250° |
| 2026-04-23 18:29 | 59.55477 | 21.88905 | 33119 ft | 472 kts | 250° |
| 2026-04-23 18:29 | 59.53746 | 21.83371 | 33504 ft | 479 kts | 244° |
| 2026-04-23 18:29 | 59.51785 | 21.78050 | 33870 ft | 481 kts | 243° |
| 2026-04-23 18:29 | 59.49817 | 21.72841 | 34174 ft | 482 kts | 243° |
| 2026-04-23 18:30 | 59.47795 | 21.67589 | 34504 ft | 482 kts | 242° |
| 2026-04-23 18:30 | 59.45758 | 21.62353 | 34847 ft | 481 kts | 242° |
| 2026-04-23 18:30 | 59.43726 | 21.57136 | 35184 ft | 480 kts | 242° |
| 2026-04-23 18:30 | 59.41702 | 21.51923 | 35512 ft | 479 kts | 242° |
| 2026-04-23 18:31 | 59.39685 | 21.46712 | 35831 ft | 478 kts | 242° |
| 2026-04-23 18:31 | 59.37675 | 21.41511 | 36150 ft | 478 kts | 242° |
| 2026-04-23 18:31 | 59.35671 | 21.36328 | 36460 ft | 477 kts | 242° |
| 2026-04-23 18:31 | 59.33665 | 21.31152 | 36764 ft | 476 kts | 241° |
| 2026-04-23 18:32 | 59.31690 | 21.26060 | 37048 ft | 476 kts | 241° |
| 2026-04-23 18:32 | 59.29688 | 21.20918 | 37299 ft | 475 kts | 241° |
| 2026-04-23 18:32 | 59.27680 | 21.15782 | 37584 ft | 474 kts | 241° |
| 2026-04-23 18:32 | 59.25676 | 21.10674 | 37863 ft | 474 kts | 241° |
| 2026-04-23 18:33 | 59.23663 | 21.05556 | 37966 ft | 476 kts | 241° |
| 2026-04-23 18:33 | 59.19601 | 20.95224 | 37936 ft | 481 kts | 241° |
| 2026-04-23 18:34 | 59.15535 | 20.84941 | 37979 ft | 482 kts | 240° |
| 2026-04-23 18:34 | 59.11426 | 20.74623 | 37974 ft | 482 kts | 240° |
| 2026-04-23 18:35 | 59.07313 | 20.64321 | 37993 ft | 483 kts | 240° |
| 2026-04-23 18:35 | 59.03178 | 20.53996 | 38002 ft | 484 kts | 240° |
| 2026-04-23 18:36 | 58.99025 | 20.43681 | 38005 ft | 485 kts | 240° |
| 2026-04-23 18:36 | 58.94886 | 20.33459 | 38010 ft | 485 kts | 240° |
| 2026-04-23 18:37 | 58.90713 | 20.23195 | 38015 ft | 486 kts | 240° |
| 2026-04-23 18:37 | 58.86529 | 20.12942 | 37990 ft | 486 kts | 240° |
| 2026-04-23 18:38 | 58.82329 | 20.02706 | 38007 ft | 486 kts | 240° |
| 2026-04-23 18:38 | 58.78148 | 19.92546 | 37967 ft | 487 kts | 240° |
| 2026-04-23 18:39 | 58.73911 | 19.82282 | 38001 ft | 487 kts | 239° |
| 2026-04-23 18:39 | 58.69718 | 19.72175 | 38025 ft | 488 kts | 239° |
| 2026-04-23 18:40 | 58.65456 | 19.61963 | 38003 ft | 488 kts | 239° |
| 2026-04-23 18:40 | 58.61207 | 19.51817 | 38021 ft | 488 kts | 239° |
| 2026-04-23 18:41 | 58.56942 | 19.41675 | 38033 ft | 488 kts | 239° |
| 2026-04-23 18:41 | 58.52702 | 19.31642 | 38037 ft | 488 kts | 239° |
| 2026-04-23 18:42 | 58.48411 | 19.21545 | 38038 ft | 489 kts | 239° |
| 2026-04-23 18:42 | 58.44120 | 19.11473 | 38018 ft | 489 kts | 238° |
| 2026-04-23 18:43 | 58.39826 | 19.01430 | 38031 ft | 489 kts | 238° |
| 2026-04-23 18:43 | 58.35551 | 18.91461 | 37996 ft | 489 kts | 238° |
| 2026-04-23 18:44 | 58.31246 | 18.81488 | 38057 ft | 487 kts | 238° |
| 2026-04-23 18:44 | 58.26936 | 18.71564 | 38058 ft | 487 kts | 238° |
| 2026-04-23 18:45 | 58.24077 | 18.64995 | 38063 ft | 486 kts | 238° |